Time;durP1;ratioP1;P1;durP2;ratioP2;P2;SDS_P1;SDS_P2;PMS_P1;PMS_P2;Temp;Humidity;BMP_temperature;BMP_pressure;BME280_temperature;BME280_humidity;BME280_pressure;Samples;Min_cycle;Max_cycle;Signal;HPM_P1;HPM_P2
2023/10/20 00:01:05;;;;;;;;;;;;;;;-140.72;100.00;61994.13;5073605;28;20000;-68
2023/10/20 00:03:30;;;;;;;;;;;;;;;-140.72;100.00;62016.50;5073389;28;20365;-68
2023/10/20 00:05:56;;;;;;;;;;;;;;;-140.72;100.00;61996.16;5082497;28;19921;-69
2023/10/20 00:08:22;;;;;;;;;;;;;;;-140.72;100.00;62000.22;5078704;28;19920;-68
2023/10/20 00:10:47;;;;;;;;;;;;;;;-140.72;100.00;62020.56;5072054;28;19924;-68
2023/10/20 00:13:12;;;;;;;;;;;;;;;-140.72;100.00;62010.38;5063404;28;19928;-69
2023/10/20 00:15:37;;;;;;;;;;;;;;;-140.72;100.00;61994.13;5084203;28;19931;-69
2023/10/20 00:18:03;;;;;;;;;;;;;;;-140.72;100.00;61981.91;5072764;28;19916;-69
2023/10/20 00:20:28;;;;;;;;;;;;;;;-140.72;100.00;61981.91;5072906;28;20270;-69
2023/10/20 00:22:54;;;;;;;;;;;;;;;-140.72;100.00;61959.53;5058144;28;20367;-69
2023/10/20 00:25:19;;;;;;;;;;;;;;;-140.72;100.00;61971.75;5069794;28;19920;-68
2023/10/20 00:27:45;;;;;;;;;;;;;;;-140.72;100.00;61965.63;5074436;28;19921;-68
2023/10/20 00:30:11;;;;;;;;;;;;;;;-140.72;100.00;61945.31;5096851;28;19991;-68
2023/10/20 00:32:43;;;;;;;;;;;;;;;-140.72;100.00;61916.81;5080654;28;20333;-69
2023/10/20 00:35:09;;;;;;;;;;;;;;;-140.72;100.00;61939.19;5074182;28;20286;-69
2023/10/20 00:37:35;;;;;;;;;;;;;;;-140.72;100.00;61929.03;5075270;28;19962;-69
2023/10/20 00:40:00;;;;;;;;;;;;;;;-140.72;100.00;61892.41;5077380;28;20418;-69
2023/10/20 00:42:25;;;;;;;;;;;;;;;-140.72;100.00;61882.25;5076694;28;19960;-69
2023/10/20 00:44:50;;;;;;;;;;;;;;;-140.72;100.00;61892.41;5073981;28;19928;-70
2023/10/20 00:47:17;;;;;;;;;;;;;;;-140.72;100.00;61859.88;5065160;28;19931;-69
2023/10/20 00:49:42;;;;;;;;;;;;;;;-140.72;100.00;61863.94;5072676;28;20363;-68
2023/10/20 00:52:09;;;;;;;;;;;;;;;-140.72;100.00;61878.19;5070967;28;19921;-68
2023/10/20 00:54:35;;;;;;;;;;;;;;;-140.72;100.00;61872.06;5068594;28;19920;-69
2023/10/20 00:57:01;;;;;;;;;;;;;;;-140.72;100.00;61837.50;5072992;28;20373;-69
2023/10/20 00:59:27;;;;;;;;;;;;;;;-140.72;100.00;61845.63;5060243;28;20424;-68
2023/10/20 01:01:52;;;;;;;;;;;;;;;-140.72;100.00;61811.06;5079325;28;19935;-69
2023/10/20 01:04:19;;;;;;;;;;;;;;;-140.72;100.00;61827.31;5067403;28;19920;-69
2023/10/20 01:06:48;;;;;;;;;;;;;;;-140.72;100.00;61831.41;5081918;28;19940;-69
2023/10/20 01:09:21;;;;;;;;;;;;;;;-140.72;100.00;61837.50;5075801;28;21004;-69
2023/10/20 01:11:47;;;;;;;;;;;;;;;-140.72;100.00;61835.47;5069550;28;19921;-69
2023/10/20 01:14:12;;;;;;;;;;;;;;;-140.72;100.00;61825.28;5073295;28;20315;-69
2023/10/20 01:16:37;;;;;;;;;;;;;;;-140.72;100.00;61843.59;5064527;28;20387;-69
2023/10/20 01:19:02;;;;;;;;;;;;;;;-140.72;100.00;61823.25;5065459;28;19930;-69
2023/10/20 01:21:28;;;;;;;;;;;;;;;-140.72;100.00;61851.72;5072463;28;20410;-69
2023/10/20 01:23:54;;;;;;;;;;;;;;;-140.72;100.00;61841.56;5079132;28;19966;-69
2023/10/20 01:26:20;;;;;;;;;;;;;;;-140.72;100.00;61837.50;5071848;28;19951;-69
2023/10/20 01:28:45;;;;;;;;;;;;;;;-140.72;100.00;61865.97;5071064;28;20028;-69
2023/10/20 01:31:10;;;;;;;;;;;;;;;-140.72;100.00;61849.69;5071358;28;19916;-69
2023/10/20 01:33:35;;;;;;;;;;;;;;;-140.72;100.00;61847.66;5071589;28;19928;-70
2023/10/20 01:36:03;;;;;;;;;;;;;;;-140.72;100.00;61865.97;5078451;28;20359;-69
2023/10/20 01:38:28;;;;;;;;;;;;;;;-140.72;100.00;61865.97;5072516;28;19973;-69
2023/10/20 01:40:53;;;;;;;;;;;;;;;-140.72;100.00;61841.56;5071014;28;19954;-70
2023/10/20 01:43:18;;;;;;;;;;;;;;;-140.72;100.00;61878.19;5068706;28;19920;-70
2023/10/20 01:45:46;;;;;;;;;;;;;;;-140.72;100.00;61884.28;5060814;28;20271;-69
2023/10/20 01:48:11;;;;;;;;;;;;;;;-140.72;100.00;61898.50;5070840;28;19928;-69
2023/10/20 01:50:37;;;;;;;;;;;;;;;-140.72;100.00;61859.88;5070404;28;20329;-69
2023/10/20 01:53:02;;;;;;;;;;;;;;;-140.72;100.00;61839.53;5077432;28;19943;-70
2023/10/20 01:55:29;;;;;;;;;;;;;;;-140.72;100.00;61870.03;5073668;28;19929;-70
2023/10/20 01:57:55;;;;;;;;;;;;;;;-140.72;100.00;61853.78;5069152;28;19921;-69
2023/10/20 02:00:20;;;;;;;;;;;;;;;-140.72;100.00;61880.22;5067496;28;19989;-69
2023/10/20 02:02:45;;;;;;;;;;;;;;;-140.72;100.00;61859.88;5067568;28;19928;-69
2023/10/20 02:05:12;;;;;;;;;;;;;;;-140.72;100.00;61876.16;5064483;28;19927;-70
2023/10/20 02:07:38;;;;;;;;;;;;;;;-140.72;100.00;61874.09;5072498;28;19999;-70
2023/10/20 02:10:06;;;;;;;;;;;;;;;-140.72;100.00;61884.28;5072100;28;19926;-69
2023/10/20 02:12:31;;;;;;;;;;;;;;;-140.72;100.00;61910.72;5073520;28;20423;-70
2023/10/20 02:14:56;;;;;;;;;;;;;;;-140.72;100.00;61890.38;5086883;28;19917;-70
2023/10/20 02:17:22;;;;;;;;;;;;;;;-140.72;100.00;61865.97;5086915;28;19917;-69
2023/10/20 02:19:47;;;;;;;;;;;;;;;-140.72;100.00;61870.03;5075832;28;20014;-69
2023/10/20 02:22:12;;;;;;;;;;;;;;;-140.72;100.00;61878.19;5074568;28;19923;-69
2023/10/20 02:24:37;;;;;;;;;;;;;;;-140.72;100.00;61861.91;5069499;28;19920;-70
2023/10/20 02:27:03;;;;;;;;;;;;;;;-140.72;100.00;61880.22;5071856;28;19931;-69
2023/10/20 02:29:28;;;;;;;;;;;;;;;-140.72;100.00;61872.06;5073221;28;19928;-69
2023/10/20 02:31:53;;;;;;;;;;;;;;;-140.72;100.00;61880.22;5074084;28;19928;-69
2023/10/20 02:34:18;;;;;;;;;;;;;;;-140.72;100.00;61884.28;5085470;28;19916;-69
2023/10/20 02:36:44;;;;;;;;;;;;;;;-140.72;100.00;61835.47;5069234;28;19924;-69
2023/10/20 02:39:09;;;;;;;;;;;;;;;-140.72;100.00;61892.41;5072632;28;19998;-69
2023/10/20 02:41:34;;;;;;;;;;;;;;;-140.72;100.00;61849.69;5067377;28;19917;-69
2023/10/20 02:43:59;;;;;;;;;;;;;;;-140.72;100.00;61841.56;5079711;28;19924;-69
2023/10/20 02:46:25;;;;;;;;;;;;;;;-140.72;100.00;61868.00;5070399;28;20382;-69
2023/10/20 02:48:50;;;;;;;;;;;;;;;-140.72;100.00;61870.03;5069199;28;20014;-69
2023/10/20 02:51:17;;;;;;;;;;;;;;;-140.72;100.00;61884.28;5067892;28;20256;-69
2023/10/20 02:53:42;;;;;;;;;;;;;;;-140.72;100.00;61825.28;5073533;28;19916;-69
2023/10/20 02:56:11;;;;;;;;;;;;;;;-140.72;100.00;61815.13;5071471;28;19927;-69
2023/10/20 02:58:36;;;;;;;;;;;;;;;-140.72;100.00;61855.81;5068632;28;20394;-69
2023/10/20 03:01:05;;;;;;;;;;;;;;;-140.72;100.00;61827.31;5063600;28;19927;-69
2023/10/20 03:03:30;;;;;;;;;;;;;;;-140.72;100.00;61796.81;5071680;28;19943;-69
2023/10/20 03:05:55;;;;;;;;;;;;;;;-140.72;100.00;61792.75;5073967;28;19928;-69
2023/10/20 03:08:22;;;;;;;;;;;;;;;-140.72;100.00;61800.88;5072985;28;19920;-69
2023/10/20 03:10:47;;;;;;;;;;;;;;;-140.72;100.00;61800.88;5063071;28;20401;-69
2023/10/20 03:13:13;;;;;;;;;;;;;;;-140.72;100.00;61752.06;5060570;28;20402;-69
2023/10/20 03:15:38;;;;;;;;;;;;;;;-140.72;100.00;61768.34;5068372;28;20011;-69
2023/10/20 03:18:03;;;;;;;;;;;;;;;-140.72;100.00;61752.06;5072217;28;19923;-69
2023/10/20 03:20:30;;;;;;;;;;;;;;;-140.72;100.00;61715.47;5070578;28;19920;-69
2023/10/20 03:22:55;;;;;;;;;;;;;;;-140.72;100.00;61674.78;5073094;28;20460;-69
2023/10/20 03:25:20;;;;;;;;;;;;;;;-140.72;100.00;61715.47;5072132;28;20075;-68
2023/10/20 03:27:46;;;;;;;;;;;;;;;-140.72;100.00;61711.41;5072394;28;19932;-69
2023/10/20 03:30:11;;;;;;;;;;;;;;;-140.72;100.00;61662.59;5074052;28;19928;-70
2023/10/20 03:32:36;;;;;;;;;;;;;;;-140.72;100.00;61674.78;5069773;28;19928;-69
2023/10/20 03:35:02;;;;;;;;;;;;;;;-140.72;100.00;61646.31;5073395;28;20029;-69
2023/10/20 03:37:27;;;;;;;;;;;;;;;-140.72;100.00;61642.25;5068854;28;19973;-69
2023/10/20 03:39:53;;;;;;;;;;;;;;;-140.72;100.00;61589.38;5071134;28;19917;-69
2023/10/20 03:42:18;;;;;;;;;;;;;;;-140.72;100.00;61634.09;5071377;28;20399;-69
2023/10/20 03:44:43;;;;;;;;;;;;;;;-140.72;100.00;61585.28;5072039;28;19916;-69
2023/10/20 03:47:09;;;;;;;;;;;;;;;-140.72;100.00;61585.28;5070110;28;19916;-69
2023/10/20 03:49:35;;;;;;;;;;;;;;;-140.72;100.00;61585.28;5073652;28;19924;-69
2023/10/20 03:52:01;;;;;;;;;;;;;;;-140.72;100.00;61534.44;5079214;28;19974;-69
2023/10/20 03:54:26;;;;;;;;;;;;;;;-140.72;100.00;61483.59;5080698;28;20343;-69
2023/10/20 03:56:51;;;;;;;;;;;;;;;-140.72;100.00;61524.28;5085122;28;19926;-70
2023/10/20 03:59:17;;;;;;;;;;;;;;;-140.72;100.00;61497.84;5062931;28;20339;-70
2023/10/20 04:01:43;;;;;;;;;;;;;;;-140.72;100.00;61469.38;5069821;28;20240;-69
2023/10/20 04:04:09;;;;;;;;;;;;;;;-140.72;100.00;61442.94;5085205;28;19939;-69
2023/10/20 04:06:35;;;;;;;;;;;;;;;-140.72;100.00;61455.13;5080318;28;20036;-69
2023/10/20 04:09:02;;;;;;;;;;;;;;;-140.72;100.00;61400.22;5071423;28;19948;-69
2023/10/20 04:11:28;;;;;;;;;;;;;;;-140.72;100.00;61396.16;5071727;28;19920;-70
2023/10/20 04:13:53;;;;;;;;;;;;;;;-140.72;100.00;61361.59;5072358;28;19963;-69
2023/10/20 04:16:19;;;;;;;;;;;;;;;-140.72;100.00;61302.59;5073277;28;19917;-69
2023/10/20 04:18:44;;;;;;;;;;;;;;;-140.72;100.00;61337.19;5071296;28;20385;-69
2023/10/20 04:21:13;;;;;;;;;;;;;;;-140.72;100.00;61308.72;5070016;28;19925;-70
2023/10/20 04:23:38;;;;;;;;;;;;;;;-140.72;100.00;61296.50;5064271;28;19946;-70
2023/10/20 04:26:18;;;;;;;;;;;;;;;-140.72;100.00;61241.59;5071242;28;19924;-70
2023/10/20 04:28:43;;;;;;;;;;;;;;;-140.72;100.00;61231.44;5071707;28;19920;-70
2023/10/20 04:52:58;;;;;;;;;;;;;;;-140.72;100.00;61129.75;5075648;28;19928;-69
2023/10/20 04:58:04;;;;;;;;;;;;;;;-140.72;100.00;61058.56;5076329;28;19920;-70
2023/10/20 05:00:33;;;;;;;;;;;;;;;-140.72;100.00;61062.63;5079572;28;19921;-72
2023/10/20 05:03:15;;;;;;;;;;;;;;;-140.72;100.00;61038.22;5063878;28;19920;-71
2023/10/20 05:05:44;;;;;;;;;;;;;;;-140.72;100.00;61040.28;5059939;28;19985;-72
2023/10/20 05:10:38;;;;;;;;;;;;;;;-140.72;100.00;61005.69;5064242;28;19963;-72
2023/10/20 05:13:03;;;;;;;;;;;;;;;-140.72;100.00;60928.44;5071967;28;19951;-71
2023/10/20 05:15:32;;;;;;;;;;;;;;;-140.72;100.00;60944.69;5070185;28;19924;-71
2023/10/20 05:17:57;;;;;;;;;;;;;;;-140.72;100.00;60934.53;5081464;28;20003;-72
2023/10/20 05:20:23;;;;;;;;;;;;;;;-140.72;100.00;60932.50;5074091;28;19932;-73
2023/10/20 05:22:49;;;;;;;;;;;;;;;-140.72;100.00;60899.97;5069283;28;20365;-71
2023/10/20 05:25:14;;;;;;;;;;;;;;;-140.72;100.00;60910.13;5059969;28;19960;-71
2023/10/20 05:27:40;;;;;;;;;;;;;;;-140.72;100.00;60897.91;5069729;28;19951;-71
2023/10/20 05:30:05;;;;;;;;;;;;;;;-140.72;100.00;60859.28;5060326;28;19959;-76
2023/10/20 05:32:33;;;;;;;;;;;;;;;-140.72;100.00;60828.78;5060156;28;20417;-72
2023/10/20 05:34:59;;;;;;;;;;;;;;;-140.72;100.00;60838.94;5065571;28;20011;-73
2023/10/20 05:37:24;;;;;;;;;;;;;;;-140.72;100.00;60784.06;5067832;28;20000;-74
2023/10/20 05:39:49;;;;;;;;;;;;;;;-140.72;100.00;60786.09;5067878;28;19974;-70
2023/10/20 05:42:16;;;;;;;;;;;;;;;-140.72;100.00;60775.91;5071105;28;20011;-74
2023/10/20 05:44:48;;;;;;;;;;;;;;;-140.72;100.00;60739.31;5060466;28;20324;-70
2023/10/20 05:47:13;;;;;;;;;;;;;;;-140.72;100.00;60688.47;5063967;28;19940;-70
2023/10/20 05:49:39;;;;;;;;;;;;;;;-140.72;100.00;60708.81;5069499;28;19917;-70
2023/10/20 05:52:05;;;;;;;;;;;;;;;-140.72;100.00;60664.09;5077883;28;19981;-71
2023/10/20 05:54:31;;;;;;;;;;;;;;;-140.72;100.00;60682.38;5069465;28;19920;-72
2023/10/20 05:56:56;;;;;;;;;;;;;;;-140.72;100.00;60653.91;5064182;28;19934;-72
2023/10/20 05:59:21;;;;;;;;;;;;;;;-140.72;100.00;60647.81;5071205;28;20276;-72
2023/10/20 06:01:46;;;;;;;;;;;;;;;-140.72;100.00;60617.31;5069593;28;19936;-72
2023/10/20 06:04:12;;;;;;;;;;;;;;;-140.72;100.00;60653.91;5077951;28;19927;-71
2023/10/20 06:06:37;;;;;;;;;;;;;;;-140.72;100.00;60647.81;5074351;28;19924;-72
2023/10/20 06:09:02;;;;;;;;;;;;;;;-140.72;100.00;60617.31;5065627;28;19974;-71
2023/10/20 06:11:27;;;;;;;;;;;;;;;-140.72;100.00;60637.66;5068180;28;19920;-72
2023/10/20 06:13:53;;;;;;;;;;;;;;;-140.72;100.00;60649.84;5070874;28;19916;-72
2023/10/20 06:16:18;;;;;;;;;;;;;;;-140.72;100.00;60609.19;5067595;28;19933;-72
2023/10/20 06:18:44;;;;;;;;;;;;;;;-140.72;100.00;60657.97;5070956;28;20010;-72
2023/10/20 06:21:13;;;;;;;;;;;;;;;-140.72;100.00;60653.91;5069262;28;20024;-71
2023/10/20 06:23:40;;;;;;;;;;;;;;;-140.72;100.00;60649.84;5067196;28;19920;-72
2023/10/20 06:26:05;;;;;;;;;;;;;;;-140.72;100.00;60684.41;5067452;28;20026;-71
2023/10/20 06:28:31;;;;;;;;;;;;;;;-140.72;100.00;60647.81;5072155;28;19920;-72
2023/10/20 06:31:00;;;;;;;;;;;;;;;-140.72;100.00;60670.19;5069554;28;20016;-73
2023/10/20 06:33:32;;;;;;;;;;;;;;;-140.72;100.00;60686.44;5069880;28;20333;-73
2023/10/20 06:36:04;;;;;;;;;;;;;;;-140.72;100.00;60721.00;5065749;28;19927;-73
2023/10/20 06:38:30;;;;;;;;;;;;;;;-140.72;100.00;60700.69;5069300;28;19936;-75
2023/10/20 06:40:56;;;;;;;;;;;;;;;-140.72;100.00;60718.97;5066970;28;19985;-70
2023/10/20 06:43:21;;;;;;;;;;;;;;;-140.72;100.00;60743.38;5069911;28;20374;-70
2023/10/20 06:45:54;;;;;;;;;;;;;;;-140.72;100.00;60759.66;5080448;28;19916;-70
2023/10/20 06:48:20;;;;;;;;;;;;;;;-140.72;100.00;60769.81;5085635;28;20313;-70
2023/10/20 06:50:46;;;;;;;;;;;;;;;-140.72;100.00;60804.38;5068802;28;19928;-70
2023/10/20 06:53:11;;;;;;;;;;;;;;;-140.72;100.00;60794.22;5068420;28;20286;-70
2023/10/20 06:55:40;;;;;;;;;;;;;;;-140.72;100.00;60816.59;5072615;28;20397;-71
2023/10/20 06:58:05;;;;;;;;;;;;;;;-140.72;100.00;60832.84;5063082;28;19921;-70
2023/10/20 07:00:32;;;;;;;;;;;;;;;-140.72;100.00;60845.06;5066191;28;20398;-70
2023/10/20 07:02:57;;;;;;;;;;;;;;;-140.72;100.00;60834.88;5060037;28;19960;-70
2023/10/20 07:05:23;;;;;;;;;;;;;;;-140.72;100.00;60853.19;5068953;28;19916;-70
2023/10/20 07:08:08;;;;;;;;;;;;;;;-140.72;100.00;60851.16;5074911;28;19921;-75
2023/10/20 07:10:39;;;;;;;;;;;;;;;-140.72;100.00;60904.03;5066631;28;19936;-73
2023/10/20 07:13:06;;;;;;;;;;;;;;;-140.72;100.00;60893.84;5077024;28;20367;-73
2023/10/20 07:15:33;;;;;;;;;;;;;;;-140.72;100.00;60918.25;5078783;28;20022;-72
2023/10/20 07:17:59;;;;;;;;;;;;;;;-140.72;100.00;60928.44;5073314;28;20389;-73
2023/10/20 07:20:24;;;;;;;;;;;;;;;-140.72;100.00;60906.06;5075537;28;19917;-73
2023/10/20 07:22:50;;;;;;;;;;;;;;;-140.72;100.00;60936.56;5070806;28;19931;-73
2023/10/20 07:25:15;;;;;;;;;;;;;;;-140.72;100.00;60946.72;5075094;28;19916;-74
2023/10/20 07:27:40;;;;;;;;;;;;;;;-140.72;100.00;60971.13;5072592;28;20251;-72
2023/10/20 07:30:06;;;;;;;;;;;;;;;-140.72;100.00;60977.22;5079604;28;19926;-71
2023/10/20 07:32:31;;;;;;;;;;;;;;;-140.72;100.00;60967.06;5070163;28;20401;-71
2023/10/20 07:34:57;;;;;;;;;;;;;;;-140.72;100.00;60958.94;5066282;28;19936;-71
2023/10/20 07:37:22;;;;;;;;;;;;;;;-140.72;100.00;60965.03;5073102;28;19921;-71
2023/10/20 07:39:47;;;;;;;;;;;;;;;-140.72;100.00;60979.25;5073191;28;20010;-71
2023/10/20 07:42:16;;;;;;;;;;;;;;;-140.72;100.00;60989.44;5070963;28;19991;-71
2023/10/20 07:44:41;;;;;;;;;;;;;;;-140.72;100.00;61001.63;5077204;28;20388;-73
2023/10/20 07:47:06;;;;;;;;;;;;;;;-140.72;100.00;60971.13;5070110;28;19920;-72
2023/10/20 07:49:31;;;;;;;;;;;;;;;-140.72;100.00;60983.31;5065748;28;19932;-73
2023/10/20 07:51:57;;;;;;;;;;;;;;;-140.72;100.00;60952.81;5073375;28;19921;-75
2023/10/20 07:54:22;;;;;;;;;;;;;;;-140.72;100.00;60969.09;5067918;28;19924;-73
2023/10/20 07:56:47;;;;;;;;;;;;;;;-140.72;100.00;60965.03;5071903;28;19922;-73
2023/10/20 07:59:12;;;;;;;;;;;;;;;-140.72;100.00;60963.00;5060817;28;19927;-71
2023/10/20 08:01:37;;;;;;;;;;;;;;;-140.72;100.00;60967.06;5069165;28;19942;-73
2023/10/20 08:04:03;;;;;;;;;;;;;;;-140.72;100.00;60971.13;5070634;28;20015;-73
2023/10/20 08:06:28;;;;;;;;;;;;;;;-140.72;100.00;60908.09;5070133;28;19984;-71
2023/10/20 08:08:53;;;;;;;;;;;;;;;-140.72;100.00;60958.94;5070828;28;19921;-71
2023/10/20 08:11:18;;;;;;;;;;;;;;;-140.72;100.00;60942.66;5071375;28;19920;-71
2023/10/20 08:13:50;;;;;;;;;;;;;;;-140.72;100.00;60971.13;5072086;28;19932;-72
2023/10/20 08:16:15;;;;;;;;;;;;;;;-140.72;100.00;60928.44;5077428;28;19949;-72
2023/10/20 08:18:41;;;;;;;;;;;;;;;-140.72;100.00;60948.75;5070983;28;19927;-76
2023/10/20 08:21:07;;;;;;;;;;;;;;;-140.72;100.00;60938.59;5071931;28;20174;-73
2023/10/20 08:23:33;;;;;;;;;;;;;;;-140.72;100.00;60958.94;5072381;28;20343;-73
2023/10/20 08:25:58;;;;;;;;;;;;;;;-140.72;100.00;60916.22;5079622;28;20016;-72
2023/10/20 08:28:25;;;;;;;;;;;;;;;-140.72;100.00;60910.13;5079079;28;19928;-72
2023/10/20 08:30:50;;;;;;;;;;;;;;;-140.72;100.00;60902.00;5077244;28;19917;-73
2023/10/20 08:33:15;;;;;;;;;;;;;;;-140.72;100.00;60922.31;5068307;28;20015;-72
2023/10/20 08:35:40;;;;;;;;;;;;;;;-140.72;100.00;60881.66;5053682;28;19917;-76
2023/10/20 08:38:07;;;;;;;;;;;;;;;-140.72;100.00;60869.44;5075199;28;19916;-78
2023/10/20 08:40:35;;;;;;;;;;;;;;;-140.72;100.00;60902.00;5071016;28;19916;-74
2023/10/20 08:43:04;;;;;;;;;;;;;;;-140.72;100.00;60867.41;5068612;28;20293;-74
2023/10/20 08:45:32;;;;;;;;;;;;;;;-140.72;100.00;60861.31;5073930;28;19990;-74
2023/10/20 08:48:01;;;;;;;;;;;;;;;-140.72;100.00;60865.38;5084628;28;20046;-75
2023/10/20 08:50:29;;;;;;;;;;;;;;;-140.72;100.00;60838.94;5068039;28;20071;-77
2023/10/20 08:52:56;;;;;;;;;;;;;;;-140.72;100.00;60893.84;5060872;28;19982;-71
2023/10/20 08:55:21;;;;;;;;;;;;;;;-140.72;100.00;60861.31;5091547;28;19948;-73
2023/10/20 08:57:47;;;;;;;;;;;;;;;-140.72;100.00;60865.38;5071173;28;19920;-71
2023/10/20 09:00:20;;;;;;;;;;;;;;;-140.72;100.00;60875.56;5062957;28;19921;-72
2023/10/20 09:02:45;;;;;;;;;;;;;;;-140.72;100.00;60889.78;5072044;28;19920;-74
2023/10/20 09:05:10;;;;;;;;;;;;;;;-140.72;100.00;60834.88;5071085;28;19961;-72
2023/10/20 09:07:36;;;;;;;;;;;;;;;-140.72;100.00;60873.53;5072638;28;19928;-73
2023/10/20 09:10:01;;;;;;;;;;;;;;;-140.72;100.00;60836.91;5070415;28;19924;-75
2023/10/20 09:12:28;;;;;;;;;;;;;;;-140.72;100.00;60859.28;5076956;28;19916;-69
2023/10/20 09:14:56;;;;;;;;;;;;;;;-140.72;100.00;60859.28;5073450;28;19966;-70
2023/10/20 09:17:24;;;;;;;;;;;;;;;-140.72;100.00;60843.03;5076865;28;19916;-70
2023/10/20 09:19:49;;;;;;;;;;;;;;;-140.72;100.00;60845.06;5074986;28;19928;-70
2023/10/20 09:22:14;;;;;;;;;;;;;;;-140.72;100.00;60828.78;5079461;28;20325;-70
2023/10/20 09:24:41;;;;;;;;;;;;;;;-140.72;100.00;60808.44;5085884;28;19947;-70
2023/10/20 09:27:07;;;;;;;;;;;;;;;-140.72;100.00;60834.88;5077950;28;19931;-70
2023/10/20 09:29:33;;;;;;;;;;;;;;;-140.72;100.00;60820.66;5070798;28;19921;-70
2023/10/20 09:32:04;;;;;;;;;;;;;;;-140.72;100.00;60830.81;5068378;28;19923;-70
2023/10/20 09:34:29;;;;;;;;;;;;;;;-140.72;100.00;60822.69;5066562;28;19928;-70
2023/10/20 09:36:56;;;;;;;;;;;;;;;-140.72;100.00;60816.59;5069432;28;20386;-70
2023/10/20 09:39:25;;;;;;;;;;;;;;;-140.72;100.00;60830.81;5065529;28;19928;-74
2023/10/20 09:41:50;;;;;;;;;;;;;;;-140.72;100.00;60840.97;5066657;28;19916;-72
2023/10/20 09:44:21;;;;;;;;;;;;;;;-140.72;100.00;60834.88;5068180;28;20024;-73
2023/10/20 09:46:53;;;;;;;;;;;;;;;-140.72;100.00;60824.72;5062093;28;19925;-73
2023/10/20 09:49:22;;;;;;;;;;;;;;;-140.72;100.00;60786.09;5070591;28;20443;-75
2023/10/20 09:51:48;;;;;;;;;;;;;;;-140.72;100.00;60869.44;5068575;28;19920;-73
2023/10/20 09:54:15;;;;;;;;;;;;;;;-140.72;100.00;60853.19;5065488;28;19921;-72
2023/10/20 09:56:45;;;;;;;;;;;;;;;-140.72;100.00;60820.66;5062621;28;19932;-72
2023/10/20 09:59:15;;;;;;;;;;;;;;;-140.72;100.00;60881.66;5070326;28;19955;-72
2023/10/20 10:01:42;;;;;;;;;;;;;;;-140.72;100.00;60849.13;5071337;28;19988;-72
2023/10/20 10:04:09;;;;;;;;;;;;;;;-140.72;100.00;60851.16;5072092;28;19928;-74
2023/10/20 10:06:35;;;;;;;;;;;;;;;-140.72;100.00;60887.75;5059676;28;19990;-72
2023/10/20 10:09:03;;;;;;;;;;;;;;;-140.72;100.00;60861.31;5070719;28;19928;-73
2023/10/20 10:11:30;;;;;;;;;;;;;;;-140.72;100.00;60863.34;5072673;28;19917;-72
2023/10/20 10:13:58;;;;;;;;;;;;;;;-140.72;100.00;60865.38;5071870;28;19989;-74
2023/10/20 10:16:23;;;;;;;;;;;;;;;-140.72;100.00;60818.63;5072887;28;19920;-72
2023/10/20 10:18:48;;;;;;;;;;;;;;;-140.72;100.00;60859.28;5072993;28;19976;-74
2023/10/20 10:21:28;;;;;;;;;;;;;;;-140.72;100.00;60794.22;5062942;28;19920;-71
2023/10/20 10:24:07;;;;;;;;;;;;;;;-140.72;100.00;60824.72;5070004;28;19921;-73
2023/10/20 10:26:32;;;;;;;;;;;;;;;-140.72;100.00;60812.53;5073329;28;20311;-70
2023/10/20 10:28:57;;;;;;;;;;;;;;;-140.72;100.00;60818.63;5071176;28;19956;-70
2023/10/20 10:31:32;;;;;;;;;;;;;;;-140.72;100.00;60808.44;5066035;28;20043;-70
2023/10/20 10:34:04;;;;;;;;;;;;;;;-140.72;100.00;60745.41;5066096;28;19999;-74
2023/10/20 10:36:29;;;;;;;;;;;;;;;-140.72;100.00;60777.94;5062339;28;20248;-71
2023/10/20 10:38:55;;;;;;;;;;;;;;;-140.72;100.00;60786.09;5063202;28;19917;-76
2023/10/20 10:41:23;;;;;;;;;;;;;;;-140.72;100.00;60759.66;5069693;28;20343;-72
2023/10/20 10:43:52;;;;;;;;;;;;;;;-140.72;100.00;60775.91;5083446;28;19920;-72
2023/10/20 10:46:17;;;;;;;;;;;;;;;-140.72;100.00;60737.28;5068464;28;19916;-74
2023/10/20 10:48:45;;;;;;;;;;;;;;;-140.72;100.00;60814.56;5070261;28;20046;-75
2023/10/20 10:51:10;;;;;;;;;;;;;;;-140.72;100.00;60747.44;5072612;28;19947;-73
2023/10/20 10:53:35;;;;;;;;;;;;;;;-140.72;100.00;60761.69;5074815;28;19920;-74
2023/10/20 10:56:01;;;;;;;;;;;;;;;-140.72;100.00;60779.97;5064858;28;20007;-73
2023/10/20 10:58:27;;;;;;;;;;;;;;;-140.72;100.00;60769.81;5070188;28;20350;-73
2023/10/20 11:00:54;;;;;;;;;;;;;;;-140.72;100.00;60806.41;5095307;28;19924;-72
2023/10/20 11:03:19;;;;;;;;;;;;;;;-140.72;100.00;60753.56;5072002;28;19923;-72
2023/10/20 11:05:45;;;;;;;;;;;;;;;-140.72;100.00;60767.78;5066267;28;20358;-71
2023/10/20 11:08:10;;;;;;;;;;;;;;;-140.72;100.00;60773.88;5061852;28;20428;-71
2023/10/20 11:10:37;;;;;;;;;;;;;;;-140.72;100.00;60767.78;5081740;28;19928;-73
2023/10/20 11:13:10;;;;;;;;;;;;;;;-140.72;100.00;60757.63;5077255;28;19928;-72
2023/10/20 11:15:36;;;;;;;;;;;;;;;-140.72;100.00;60739.31;5072742;28;19952;-74
2023/10/20 11:18:02;;;;;;;;;;;;;;;-140.72;100.00;60753.56;5062608;28;19924;-77
2023/10/20 11:20:29;;;;;;;;;;;;;;;-140.72;100.00;60743.38;5068343;28;19920;-74
2023/10/20 11:22:54;;;;;;;;;;;;;;;-140.72;100.00;60765.75;5080150;28;20070;-73
2023/10/20 11:25:20;;;;;;;;;;;;;;;-140.72;100.00;60749.47;5085704;28;19970;-73
2023/10/20 11:27:53;;;;;;;;;;;;;;;-140.72;100.00;60737.28;5070374;28;20243;-76
2023/10/20 11:30:21;;;;;;;;;;;;;;;-140.72;100.00;60721.00;5076203;28;20055;-72
2023/10/20 11:32:47;;;;;;;;;;;;;;;-140.72;100.00;60739.31;5074459;28;19957;-73
2023/10/20 11:35:13;;;;;;;;;;;;;;;-140.72;100.00;60731.19;5070619;28;19929;-72
2023/10/20 11:37:38;;;;;;;;;;;;;;;-140.72;100.00;60721.00;5074243;28;19993;-72
2023/10/20 11:40:04;;;;;;;;;;;;;;;-140.72;100.00;60775.91;5075093;28;19962;-71
2023/10/20 11:42:30;;;;;;;;;;;;;;;-140.72;100.00;60702.72;5083776;28;19916;-79
2023/10/20 11:44:55;;;;;;;;;;;;;;;-140.72;100.00;60680.34;5080211;28;20033;-72
2023/10/20 11:47:21;;;;;;;;;;;;;;;-140.72;100.00;60735.25;5083216;28;20020;-72
2023/10/20 11:49:46;;;;;;;;;;;;;;;-140.72;100.00;60674.25;5059139;28;19925;-72
2023/10/20 11:52:11;;;;;;;;;;;;;;;-140.72;100.00;60670.19;5063628;28;19977;-73
2023/10/20 11:54:36;;;;;;;;;;;;;;;-140.72;100.00;60698.66;5072474;28;20344;-73
2023/10/20 11:57:02;;;;;;;;;;;;;;;-140.72;100.00;60721.00;5074913;28;19928;-73
2023/10/20 11:59:27;;;;;;;;;;;;;;;-140.72;100.00;60743.38;5063175;28;19916;-73
2023/10/20 12:01:52;;;;;;;;;;;;;;;-140.72;100.00;60729.16;5056897;28;20314;-74
2023/10/20 12:04:17;;;;;;;;;;;;;;;-140.72;100.00;60727.13;5092473;28;19938;-74
2023/10/20 12:06:44;;;;;;;;;;;;;;;-140.72;100.00;60725.09;5069823;28;19968;-73
2023/10/20 12:09:10;;;;;;;;;;;;;;;-140.72;100.00;60714.91;5076321;28;19969;-73
2023/10/20 12:11:36;;;;;;;;;;;;;;;-140.72;100.00;60698.66;5073269;28;19920;-73
2023/10/20 12:14:01;;;;;;;;;;;;;;;-140.72;100.00;60763.72;5077110;28;19964;-74
2023/10/20 12:16:27;;;;;;;;;;;;;;;-140.72;100.00;60745.41;5066910;28;19946;-73
2023/10/20 12:18:52;;;;;;;;;;;;;;;-140.72;100.00;60739.31;5075477;28;19920;-73
2023/10/20 12:21:18;;;;;;;;;;;;;;;-140.72;100.00;60769.81;5074120;28;19995;-74
2023/10/20 12:23:43;;;;;;;;;;;;;;;-140.72;100.00;60718.97;5078471;28;20019;-73
2023/10/20 12:26:08;;;;;;;;;;;;;;;-140.72;100.00;60775.91;5074795;28;19927;-73
2023/10/20 12:28:34;;;;;;;;;;;;;;;-140.72;100.00;60769.81;5081614;28;19916;-75
2023/10/20 12:31:02;;;;;;;;;;;;;;;-140.72;100.00;60763.72;5072130;28;19923;-73
2023/10/20 12:33:27;;;;;;;;;;;;;;;-140.72;100.00;60800.31;5077657;28;19970;-72
2023/10/20 12:35:55;;;;;;;;;;;;;;;-140.72;100.00;60840.97;5070193;28;19920;-74
2023/10/20 12:38:21;;;;;;;;;;;;;;;-140.72;100.00;60816.59;5072078;28;20358;-74
2023/10/20 12:40:47;;;;;;;;;;;;;;;-140.72;100.00;60820.66;5077773;28;19928;-74